createdAt,value
2022-09-15T00:02:06.136Z,12.50
2022-09-15T00:04:35.954Z,12.60
2022-09-15T00:07:04.847Z,12.70
2022-09-15T00:09:33.499Z,12.70
2022-09-15T00:12:02.253Z,12.80
2022-09-15T00:14:32.149Z,12.80
2022-09-15T00:17:00.565Z,12.80
2022-09-15T00:19:28.983Z,12.80
2022-09-15T00:21:57.379Z,12.80
2022-09-15T00:24:25.782Z,12.90
2022-09-15T00:26:54.332Z,12.90
2022-09-15T00:29:22.945Z,13.00
2022-09-15T00:31:53.042Z,13.00
2022-09-15T00:34:24.432Z,13.10
2022-09-15T00:36:52.901Z,13.00
2022-09-15T00:39:21.294Z,13.10
2022-09-15T00:41:49.601Z,13.10
2022-09-15T00:44:50.403Z,13.10
2022-09-15T00:47:23.972Z,13.10
2022-09-15T00:49:59.360Z,13.10
2022-09-15T00:52:33.493Z,13.10
2022-09-15T00:55:07.293Z,13.10
2022-09-15T00:57:41.066Z,13.10
2022-09-15T01:00:13.173Z,13.10
2022-09-15T01:02:44.849Z,13.10
2022-09-15T01:05:16.432Z,13.10
2022-09-15T01:07:48.210Z,13.00
2022-09-15T01:10:22.571Z,13.00
2022-09-15T01:12:51.310Z,12.90
2022-09-15T01:15:20.160Z,12.90
2022-09-15T01:18:05.322Z,12.80
2022-09-15T01:20:57.474Z,12.80
2022-09-15T01:23:59.028Z,12.70
2022-09-15T01:27:13.680Z,12.60
2022-09-15T01:30:10.931Z,12.50
2022-09-15T01:33:06.304Z,12.40
2022-09-15T01:35:57.499Z,12.40
2022-09-15T01:38:36.540Z,12.30
2022-09-15T01:41:10.835Z,12.30
2022-09-15T01:43:45.450Z,12.20
2022-09-15T01:46:16.555Z,12.20
2022-09-15T01:48:46.902Z,12.20
2022-09-15T01:51:15.639Z,12.10
2022-09-15T01:53:44.618Z,12.10
2022-09-15T01:56:14.089Z,12.10
2022-09-15T01:58:43.412Z,12.10
2022-09-15T02:01:18.805Z,12.00
2022-09-15T02:03:50.946Z,12.00
2022-09-15T02:06:37.370Z,11.90
2022-09-15T02:09:13.850Z,11.90
2022-09-15T02:11:52.387Z,11.90
2022-09-15T02:14:36.381Z,11.80
2022-09-15T02:17:06.750Z,11.80
2022-09-15T02:19:41.217Z,11.70
2022-09-15T02:22:17.763Z,11.70
2022-09-15T02:24:50.133Z,11.60
2022-09-15T02:27:24.241Z,11.60
2022-09-15T02:29:56.459Z,11.60
2022-09-15T02:32:28.731Z,11.50
2022-09-15T02:34:58.560Z,11.50
2022-09-15T02:37:28.841Z,11.40
2022-09-15T02:39:59.248Z,11.40
2022-09-15T02:42:28.493Z,11.30
2022-09-15T02:44:57.677Z,11.20
2022-09-15T02:47:28.925Z,11.10
2022-09-15T02:49:59.109Z,11.10
2022-09-15T02:52:27.831Z,11.00
2022-09-15T02:55:34.583Z,11.00
2022-09-15T02:58:26.721Z,10.90
2022-09-15T03:00:56.398Z,10.80
2022-09-15T03:03:26.350Z,10.80
2022-09-15T03:05:54.801Z,10.80
2022-09-15T03:08:23.094Z,10.80
2022-09-15T03:10:51.530Z,10.90
2022-09-15T03:13:20.773Z,10.90
2022-09-15T03:15:49.147Z,11.00
2022-09-15T03:18:20.619Z,11.10
2022-09-15T03:20:50.573Z,11.20
2022-09-15T03:23:19.033Z,11.20
2022-09-15T03:25:47.628Z,11.30
2022-09-15T03:28:16.204Z,11.40
2022-09-15T03:30:44.553Z,11.40
2022-09-15T03:33:13.006Z,11.50
2022-09-15T03:35:41.515Z,11.50
2022-09-15T03:38:14.675Z,11.60
2022-09-15T03:40:43.321Z,11.60
2022-09-15T03:43:15.410Z,11.70
2022-09-15T03:45:46.552Z,11.70
2022-09-15T03:48:15.061Z,11.80
2022-09-15T03:50:43.551Z,11.90
2022-09-15T03:53:13.383Z,11.90
2022-09-15T03:55:41.812Z,12.00
2022-09-15T03:58:10.470Z,12.00
2022-09-15T04:00:39.091Z,12.10
2022-09-15T04:03:07.621Z,12.10
2022-09-15T04:05:36.910Z,12.20
2022-09-15T04:08:05.896Z,12.20
2022-09-15T04:10:39.145Z,12.30
2022-09-15T04:13:07.671Z,12.30
2022-09-15T04:15:36.290Z,12.40
2022-09-15T04:18:05.862Z,12.40
2022-09-15T04:20:34.389Z,12.40
2022-09-15T04:23:02.762Z,12.40
2022-09-15T04:25:31.261Z,12.50
2022-09-15T04:28:01.142Z,12.50
2022-09-15T04:30:29.843Z,12.50
2022-09-15T04:32:58.252Z,12.50
2022-09-15T04:35:26.704Z,12.50
2022-09-15T04:37:56.007Z,12.50
2022-09-15T04:40:24.782Z,12.50
2022-09-15T04:42:53.922Z,12.60
2022-09-15T04:45:23.742Z,12.60
2022-09-15T04:47:53.390Z,12.60
2022-09-15T04:50:21.863Z,12.60
2022-09-15T04:52:50.354Z,12.60
2022-09-15T04:55:19.107Z,12.60
2022-09-15T04:57:47.757Z,12.60
2022-09-15T05:00:17.233Z,12.70
2022-09-15T05:02:47.270Z,12.70
2022-09-15T05:05:15.971Z,12.70
2022-09-15T05:07:44.234Z,12.70
2022-09-15T05:10:13.270Z,12.70
2022-09-15T05:12:41.651Z,12.70
2022-09-15T05:15:10.686Z,12.70
2022-09-15T05:17:39.684Z,12.70
2022-09-15T05:20:09.892Z,12.70
2022-09-15T05:22:41.853Z,12.70
2022-09-15T05:25:11.333Z,12.70
2022-09-15T05:27:40.583Z,12.70
2022-09-15T05:30:36.015Z,12.70
2022-09-15T05:32:58.836Z,12.70
2022-09-15T05:35:28.652Z,12.70
2022-09-15T05:37:59.178Z,12.80
2022-09-15T05:40:28.323Z,12.80
2022-09-15T05:42:56.967Z,12.80
2022-09-15T05:45:25.760Z,12.80
2022-09-15T05:47:54.410Z,12.80
2022-09-15T05:50:22.702Z,12.90
2022-09-15T05:52:54.240Z,12.90
2022-09-15T05:55:22.729Z,12.90
2022-09-15T05:57:51.262Z,13.00
2022-09-15T06:00:20.223Z,13.00
2022-09-15T06:02:48.601Z,13.10
2022-09-15T06:05:17.211Z,13.10
2022-09-15T06:07:45.750Z,13.10
2022-09-15T06:10:15.712Z,13.10
2022-09-15T06:12:44.151Z,13.10
2022-09-15T06:15:13.241Z,13.10
2022-09-15T06:17:42.493Z,13.10
2022-09-15T06:20:12.241Z,13.10
2022-09-15T06:22:41.223Z,13.10
2022-09-15T06:25:10.554Z,13.10
2022-09-15T06:27:40.361Z,13.10
2022-09-15T06:30:10.110Z,13.20
2022-09-15T06:32:38.683Z,13.20
2022-09-15T06:35:07.845Z,13.20
2022-09-15T06:37:36.903Z,13.30
2022-09-15T06:40:06.404Z,13.30
2022-09-15T06:42:34.870Z,13.40
2022-09-15T06:45:04.891Z,13.40
2022-09-15T06:47:34.208Z,13.50
2022-09-15T06:50:03.583Z,13.50
2022-09-15T06:52:35.306Z,13.50
2022-09-15T06:55:03.978Z,13.50
2022-09-15T06:57:32.252Z,13.60
2022-09-15T07:00:00.544Z,13.60
2022-09-15T07:02:30.558Z,13.70
2022-09-15T07:04:59.430Z,13.70
2022-09-15T07:07:29.149Z,13.70
2022-09-15T07:09:57.573Z,13.80
2022-09-15T07:12:26.104Z,13.80
2022-09-15T07:14:54.373Z,13.90
2022-09-15T07:17:22.871Z,13.90
2022-09-15T07:19:52.792Z,14.00
2022-09-15T07:22:21.571Z,14.00
2022-09-15T07:24:49.932Z,14.00
2022-09-15T07:27:18.380Z,14.10
2022-09-15T07:29:47.641Z,14.10
2022-09-15T07:32:16.121Z,14.20
2022-09-15T07:34:44.452Z,14.20
2022-09-15T07:37:14.561Z,14.20
2022-09-15T07:39:43.107Z,14.20
2022-09-15T07:42:11.500Z,14.20
2022-09-15T07:44:39.963Z,14.20
2022-09-15T07:47:08.441Z,14.20
2022-09-15T07:49:37.083Z,14.30
2022-09-15T07:52:05.483Z,14.40
2022-09-15T07:54:35.185Z,14.50
2022-09-15T07:57:03.603Z,14.70
2022-09-15T07:59:31.980Z,14.70
2022-09-15T08:02:00.602Z,14.80
2022-09-15T08:04:29.202Z,14.90
2022-09-15T08:06:57.601Z,14.90
2022-09-15T08:09:26.001Z,14.90
2022-09-15T08:11:55.722Z,15.00
2022-09-15T08:14:24.283Z,15.10
2022-09-15T08:16:52.801Z,15.10
2022-09-15T08:19:21.933Z,15.30
2022-09-15T08:21:50.334Z,15.30
2022-09-15T08:24:21.961Z,15.40
2022-09-15T08:26:50.614Z,15.50
2022-09-15T08:29:20.884Z,15.50
2022-09-15T08:31:49.434Z,15.60
2022-09-15T08:34:18.863Z,15.70
2022-09-15T08:36:47.346Z,15.80
2022-09-15T08:39:15.925Z,15.90
2022-09-15T08:41:46.632Z,16.00
2022-09-15T08:44:31.765Z,16.10
2022-09-15T08:47:05.611Z,16.20
2022-09-15T08:49:51.218Z,16.40
2022-09-15T08:52:24.485Z,16.60
2022-09-15T08:54:56.583Z,17.20
2022-09-15T08:57:26.874Z,17.30
2022-09-15T08:59:59.163Z,17.50
2022-09-15T09:02:47.766Z,17.60
2022-09-15T09:05:29.730Z,17.70
2022-09-15T09:08:19.990Z,17.50
2022-09-15T09:10:52.027Z,17.70
2022-09-15T09:13:35.383Z,18.10
2022-09-15T09:16:34.097Z,18.10
2022-09-15T09:19:14.099Z,17.90
2022-09-15T09:21:47.701Z,17.90
2022-09-15T09:24:18.131Z,18.50
2022-09-15T09:26:52.166Z,19.00
2022-09-15T09:29:22.115Z,19.30
2022-09-15T09:31:54.743Z,19.50
2022-09-15T09:34:31.022Z,19.80
2022-09-15T09:37:01.445Z,19.60
2022-09-15T09:39:30.037Z,19.00
2022-09-15T09:41:59.238Z,18.70
2022-09-15T09:44:32.132Z,18.80
2022-09-15T09:47:02.862Z,18.50
2022-09-15T09:49:35.542Z,18.60
2022-09-15T09:52:05.157Z,18.60
2022-09-15T09:54:35.642Z,18.10
2022-09-15T09:57:28.111Z,18.00
2022-09-15T09:59:56.838Z,18.20
2022-09-15T10:02:28.112Z,18.20
2022-09-15T10:05:17.633Z,18.20
2022-09-15T10:07:46.212Z,18.30
2022-09-15T10:10:22.613Z,18.40
2022-09-15T10:12:56.120Z,18.50
2022-09-15T10:15:27.021Z,18.80
2022-09-15T10:17:58.083Z,19.10
2022-09-15T10:20:32.682Z,19.50
2022-09-15T10:23:06.773Z,19.40
2022-09-15T10:25:58.586Z,19.50
2022-09-15T10:28:29.303Z,19.30
2022-09-15T10:31:03.935Z,19.40
2022-09-15T10:33:36.099Z,19.70
2022-09-15T10:36:12.564Z,19.40
2022-09-15T10:38:45.223Z,19.80
2022-09-15T10:41:27.002Z,20.10
2022-09-15T10:44:19.796Z,20.50
2022-09-15T10:46:56.565Z,20.60
2022-09-15T10:49:43.721Z,20.30
2022-09-15T10:52:23.442Z,19.80
2022-09-15T10:55:27.806Z,19.60
2022-09-15T10:58:34.593Z,19.40
2022-09-15T11:01:18.161Z,19.00
2022-09-15T11:04:11.734Z,18.60
2022-09-15T11:06:49.531Z,18.60
2022-09-15T11:09:23.342Z,18.40
2022-09-15T11:12:01.996Z,18.50
2022-09-15T11:14:44.242Z,18.50
2022-09-15T11:17:28.311Z,18.80
2022-09-15T11:20:13.655Z,18.90
2022-09-15T11:22:49.791Z,19.10
2022-09-15T11:25:21.910Z,19.20
2022-09-15T11:27:55.594Z,19.10
2022-09-15T11:30:25.840Z,19.20
2022-09-15T11:33:01.043Z,19.40
2022-09-15T11:35:41.850Z,19.70
2022-09-15T11:38:29.891Z,20.40
2022-09-15T11:41:06.024Z,20.70
2022-09-15T11:43:38.811Z,20.70
2022-09-15T11:46:14.747Z,20.70
2022-09-15T11:48:46.785Z,21.00
2022-09-15T11:51:19.994Z,20.80
2022-09-15T11:53:55.158Z,20.80
2022-09-15T11:56:29.664Z,20.90
2022-09-15T11:59:08.689Z,21.00
2022-09-15T12:01:47.098Z,21.30
2022-09-15T12:04:22.952Z,21.80
2022-09-15T12:06:57.706Z,21.60
2022-09-15T12:09:29.722Z,21.80
2022-09-15T12:12:02.542Z,21.60
2022-09-15T12:14:37.192Z,21.20
2022-09-15T12:17:11.920Z,21.00
2022-09-15T12:19:52.864Z,20.80
2022-09-15T12:22:26.739Z,21.00
2022-09-15T12:25:03.281Z,21.00
2022-09-15T12:27:32.798Z,20.40
2022-09-15T12:30:02.281Z,21.30
2022-09-15T12:32:33.374Z,21.60
2022-09-15T12:35:33.378Z,21.50
2022-09-15T12:38:02.949Z,20.90
2022-09-15T12:40:40.557Z,20.90
2022-09-15T12:43:23.436Z,21.00
2022-09-15T12:45:57.989Z,21.00
2022-09-15T12:48:29.446Z,20.80
2022-09-15T12:51:01.613Z,20.80
2022-09-15T12:53:32.623Z,20.90
2022-09-15T12:56:08.925Z,20.80
2022-09-15T12:58:40.792Z,20.80
2022-09-15T13:01:33.213Z,20.70
2022-09-15T13:04:26.701Z,20.80
2022-09-15T13:07:36.060Z,21.00
2022-09-15T13:10:31.455Z,21.20
2022-09-15T13:13:32.673Z,21.80
2022-09-15T13:16:08.302Z,21.90
2022-09-15T13:18:37.096Z,21.70
2022-09-15T13:21:12.376Z,22.40
2022-09-15T13:23:45.337Z,23.10
2022-09-15T13:26:19.037Z,23.50
2022-09-15T13:28:52.805Z,23.30
2022-09-15T13:31:37.873Z,22.90
2022-09-15T13:38:12.219Z,21.40
2022-09-15T13:41:18.557Z,20.70
2022-09-15T13:44:12.811Z,20.30
2022-09-15T13:46:53.840Z,20.00
2022-09-15T13:49:48.389Z,19.70
2022-09-15T13:52:32.322Z,19.40
2022-09-15T13:55:14.134Z,19.40
2022-09-15T14:00:38.600Z,19.20
2022-09-15T14:03:13.160Z,19.00
2022-09-15T14:05:43.633Z,19.10
2022-09-15T14:08:17.497Z,19.10
2022-09-15T14:10:49.808Z,19.20
2022-09-15T14:13:22.160Z,19.30
2022-09-15T14:16:02.323Z,20.10
2022-09-15T14:18:42.430Z,20.80
2022-09-15T14:21:20.030Z,21.00
2022-09-15T14:23:50.893Z,21.50
2022-09-15T14:26:22.703Z,21.50
2022-09-15T14:28:53.550Z,21.20
2022-09-15T14:31:33.891Z,21.60
2022-09-15T14:34:06.662Z,21.70
2022-09-15T14:36:36.560Z,21.30
2022-09-15T14:39:22.964Z,20.90
2022-09-15T14:41:52.791Z,20.50
2022-09-15T14:47:18.084Z,19.60
2022-09-15T14:49:48.355Z,19.60
2022-09-15T14:52:27.832Z,19.70
2022-09-15T14:55:00.589Z,20.20
2022-09-15T14:57:33.438Z,20.80
2022-09-15T15:00:08.743Z,21.20
2022-09-15T15:02:52.355Z,21.20
2022-09-15T15:05:26.013Z,21.30
2022-09-15T15:07:56.686Z,21.30
2022-09-15T15:10:29.277Z,21.20
2022-09-15T15:13:03.969Z,20.80
2022-09-15T15:15:34.559Z,20.50
2022-09-15T15:18:07.935Z,19.80
2022-09-15T15:20:50.806Z,19.50
2022-09-15T15:23:24.116Z,19.20
2022-09-15T15:25:54.234Z,19.20
2022-09-15T15:28:34.142Z,19.00
2022-09-15T15:31:16.150Z,19.00
2022-09-15T15:33:49.782Z,18.90
2022-09-15T15:36:24.597Z,18.80
2022-09-15T15:38:56.024Z,18.70
2022-09-15T15:41:27.815Z,18.70
2022-09-15T15:43:58.875Z,18.60
2022-09-15T15:46:47.437Z,18.60
2022-09-15T15:49:17.755Z,18.70
2022-09-15T15:51:48.371Z,18.80
2022-09-15T15:54:17.821Z,18.80
2022-09-15T15:56:47.863Z,18.80
2022-09-15T15:59:17.204Z,18.80
2022-09-15T16:01:48.093Z,18.70
2022-09-15T16:04:16.755Z,18.70
2022-09-15T16:06:49.337Z,18.60
2022-09-15T16:09:20.047Z,18.50
2022-09-15T16:11:49.370Z,18.40
2022-09-15T16:14:20.345Z,18.30
2022-09-15T16:16:49.662Z,18.30
2022-09-15T16:19:18.689Z,18.20
2022-09-15T16:21:49.054Z,18.10
2022-09-15T16:24:18.324Z,18.00
2022-09-15T16:26:50.624Z,18.00
2022-09-15T16:29:28.382Z,17.80
2022-09-15T16:31:57.404Z,17.60
2022-09-15T16:34:26.356Z,17.40
2022-09-15T16:36:56.480Z,17.20
2022-09-15T16:39:25.395Z,17.00
2022-09-15T16:41:54.036Z,16.90
2022-09-15T16:44:23.201Z,16.90
2022-09-15T16:46:51.820Z,16.90
2022-09-15T16:49:20.461Z,16.90
2022-09-15T16:51:49.314Z,16.90
2022-09-15T16:54:22.201Z,16.90
2022-09-15T16:56:52.018Z,16.90
2022-09-15T16:59:21.056Z,16.80
2022-09-15T17:01:50.104Z,16.80
2022-09-15T17:04:19.992Z,16.80
2022-09-15T17:06:48.520Z,16.70
2022-09-15T17:09:19.210Z,16.60
2022-09-15T17:11:48.680Z,16.50
2022-09-15T17:14:18.977Z,16.50
2022-09-15T17:16:52.820Z,16.40
2022-09-15T17:19:22.071Z,16.40
2022-09-15T17:21:52.962Z,16.30
2022-09-15T17:24:24.371Z,16.20
2022-09-15T17:26:53.561Z,16.10
2022-09-15T17:29:22.310Z,16.10
2022-09-15T17:31:51.481Z,16.00
2022-09-15T17:34:20.351Z,15.90
2022-09-15T17:36:49.287Z,15.80
2022-09-15T17:39:18.482Z,15.80
2022-09-15T17:41:48.586Z,15.70
2022-09-15T17:44:17.391Z,15.70
2022-09-15T17:46:46.239Z,15.60
2022-09-15T17:49:15.627Z,15.60
2022-09-15T17:51:44.299Z,15.50
2022-09-15T17:54:13.602Z,15.50
2022-09-15T17:56:43.260Z,15.50
2022-09-15T17:59:16.214Z,15.40
2022-09-15T18:01:44.809Z,15.30
2022-09-15T18:04:13.794Z,15.20
2022-09-15T18:06:45.578Z,15.10
2022-09-15T18:09:15.394Z,15.10
2022-09-15T18:11:44.894Z,15.00
2022-09-15T18:14:20.340Z,15.00
2022-09-15T18:16:53.543Z,14.90
2022-09-15T18:19:25.082Z,14.90
2022-09-15T18:21:56.355Z,14.90
2022-09-15T18:24:27.433Z,14.90
2022-09-15T18:26:59.835Z,14.80
2022-09-15T18:29:33.404Z,14.80
2022-09-15T18:32:05.872Z,14.80
2022-09-15T18:34:34.681Z,14.70
2022-09-15T18:37:06.071Z,14.70
2022-09-15T18:39:34.801Z,14.70
2022-09-15T18:42:03.827Z,14.70
2022-09-15T18:44:34.221Z,14.70
2022-09-15T18:47:02.694Z,14.60
2022-09-15T18:49:31.255Z,14.60
2022-09-15T18:52:02.671Z,14.50
2022-09-15T18:54:32.064Z,14.50
2022-09-15T18:57:01.143Z,14.50
2022-09-15T18:59:29.601Z,14.50
2022-09-15T19:01:59.487Z,14.50
2022-09-15T19:04:32.185Z,14.50
2022-09-15T19:07:02.179Z,14.40
2022-09-15T19:09:31.076Z,14.40
2022-09-15T19:11:59.533Z,14.40
2022-09-15T19:14:29.233Z,14.40
2022-09-15T19:16:59.458Z,14.40
2022-09-15T19:19:28.377Z,14.40
2022-09-15T19:21:57.257Z,14.40
2022-09-15T19:24:32.113Z,14.40
2022-09-15T19:27:00.842Z,14.30
2022-09-15T19:29:34.503Z,14.30
2022-09-15T19:32:06.062Z,14.30
2022-09-15T19:34:34.602Z,14.30
2022-09-15T19:37:05.815Z,14.30
2022-09-15T19:39:38.855Z,14.30
2022-09-15T19:42:08.281Z,14.20
2022-09-15T19:44:37.581Z,14.20
2022-09-15T19:47:07.612Z,14.20
2022-09-15T19:49:36.148Z,14.10
2022-09-15T19:52:06.616Z,14.00
2022-09-15T19:54:36.163Z,14.00
2022-09-15T19:57:05.677Z,14.00
2022-09-15T19:59:34.251Z,13.90
2022-09-15T20:02:02.807Z,13.90
2022-09-15T20:04:32.656Z,13.80
2022-09-15T20:07:01.577Z,13.80
2022-09-15T20:09:30.322Z,13.70
2022-09-15T20:11:58.746Z,13.70
2022-09-15T20:14:27.402Z,13.60
2022-09-15T20:16:58.709Z,13.60
2022-09-15T20:19:30.030Z,13.50
2022-09-15T20:22:00.493Z,13.50
2022-09-15T20:24:29.230Z,13.50
2022-09-15T20:26:58.940Z,13.50
2022-09-15T20:29:27.881Z,13.50
2022-09-15T20:31:56.623Z,13.50
2022-09-15T20:34:25.133Z,13.40
2022-09-15T20:36:53.753Z,13.40
2022-09-15T20:39:23.681Z,13.30
2022-09-15T20:41:52.023Z,13.30
2022-09-15T20:44:20.454Z,13.20
2022-09-15T20:46:49.000Z,13.20
2022-09-15T20:49:17.501Z,13.10
2022-09-15T20:51:46.026Z,13.10
2022-09-15T20:54:14.844Z,13.00
2022-09-15T20:56:44.671Z,13.00
2022-09-15T20:59:15.255Z,13.00
2022-09-15T21:01:43.603Z,13.00
2022-09-15T21:04:13.065Z,13.00
2022-09-15T21:06:41.435Z,13.00
2022-09-15T21:09:09.785Z,13.00
2022-09-15T21:11:39.802Z,12.90
2022-09-15T21:14:09.623Z,13.00
2022-09-15T21:16:41.488Z,12.90
2022-09-15T21:19:12.281Z,12.90
2022-09-15T21:21:40.654Z,12.90
2022-09-15T21:24:10.221Z,12.90
2022-09-15T21:27:01.267Z,12.90
2022-09-15T21:29:31.658Z,12.90
2022-09-15T21:32:00.132Z,12.90
2022-09-15T21:34:29.085Z,12.90
2022-09-15T21:36:58.013Z,12.80
2022-09-15T21:39:26.607Z,12.80
2022-09-15T21:41:54.883Z,12.80
2022-09-15T21:44:23.154Z,12.70
2022-09-15T21:46:53.766Z,12.70
2022-09-15T21:49:22.201Z,12.70
2022-09-15T21:51:50.856Z,12.60
2022-09-15T21:54:19.383Z,12.60
2022-09-15T21:56:47.942Z,12.50
2022-09-15T21:59:18.407Z,12.50
2022-09-15T22:01:46.912Z,12.40
2022-09-15T22:04:16.911Z,12.40
2022-09-15T22:06:47.000Z,12.40
2022-09-15T22:09:17.663Z,12.40
2022-09-15T22:11:46.352Z,12.30
2022-09-15T22:14:15.970Z,12.20
2022-09-15T22:16:45.034Z,12.20
2022-09-15T22:19:13.573Z,12.20
2022-09-15T22:21:46.212Z,12.10
2022-09-15T22:24:15.002Z,12.10
2022-09-15T22:26:44.649Z,12.10
2022-09-15T22:29:13.333Z,12.10
2022-09-15T22:31:42.315Z,12.10
2022-09-15T22:34:12.163Z,12.10
2022-09-15T22:36:40.552Z,12.00
2022-09-15T22:39:12.694Z,12.00
2022-09-15T22:41:41.543Z,12.00
2022-09-15T22:44:20.507Z,11.90
2022-09-15T22:46:49.749Z,11.90
2022-09-15T22:49:18.476Z,11.90
2022-09-15T22:51:46.772Z,11.90
2022-09-15T22:54:16.802Z,11.90
2022-09-15T22:56:46.683Z,12.00
2022-09-15T22:59:15.238Z,11.90
2022-09-15T23:01:43.745Z,12.00
2022-09-15T23:04:12.374Z,12.00
2022-09-15T23:06:40.713Z,12.00
2022-09-15T23:09:11.648Z,12.00
2022-09-15T23:11:41.608Z,12.00
2022-09-15T23:14:14.516Z,12.00
2022-09-15T23:16:43.367Z,12.10
2022-09-15T23:19:13.619Z,12.10
2022-09-15T23:21:42.258Z,12.10
2022-09-15T23:24:12.604Z,12.20
2022-09-15T23:26:42.806Z,12.20
2022-09-15T23:29:14.711Z,12.20
2022-09-15T23:31:43.195Z,12.30
2022-09-15T23:34:11.693Z,12.30
2022-09-15T23:36:40.174Z,12.30
2022-09-15T23:39:08.551Z,12.40
2022-09-15T23:41:44.561Z,12.40
2022-09-15T23:44:13.163Z,12.40
2022-09-15T23:46:42.038Z,12.40
2022-09-15T23:49:11.429Z,12.40
2022-09-15T23:51:41.987Z,12.40
2022-09-15T23:54:10.630Z,12.40
2022-09-15T23:56:39.333Z,12.40
2022-09-15T23:59:09.193Z,12.40
